PWSweather.com
Personal Weather Stations
Station Observations
SHAHALMS1
Eftra, Falkenberg, HA

EftraFalkenberg, HA

Lat: 56.85, Lon: 12.65

Elevation: 140

Station Type:

http://hem.passagen.se/risarp101

High Low Average
Temperature 56.7°F13.7°C 49.1°F9.5°C 53.9°F12.2°C
Dew Point 54.2°F12.3°C 47.1°F8.4°C 51.8°F11.0°C
Winds 10.8 mph 17.4 kmh Calm Calm 1.0 mph E1.6 kmh E
Wind Gusts 17.2 mph27.7 kmh -- 3.0 mph4.8 kmh
Humidity 97% 89% 93%
Pressure 30.21 in1023.0 mb 29.86 in1011.2 mb -
Precipitation 0.56 in14.2 mm - -
Hour Temp Dew Point Humidity Winds Wind Gusts Pressure Precip Precip Rate Daily Precip Total
12:00 AM 49.3°F9.6°C 47.1°F8.4°C 92% 0.4 mph NW0.6 kmh NW 3.6 mph5.8 kmh 29.86 in1011.2 mb 0.05 in1.3 mm 0.00 in0.0 mm 0.05 in1.3 mm
12:15 AM 49.3°F9.6°C 47.1°F8.4°C 92% 0.6 mph NW1.0 kmh NW 5.7 mph9.2 kmh 29.89 in1012.2 mb 0.05 in1.3 mm 0.00 in0.0 mm 0.05 in1.3 mm
12:30 AM 49.3°F9.6°C 47.1°F8.4°C 92% 0.6 mph NW1.0 kmh NW 3.9 mph6.3 kmh 29.89 in1012.2 mb 0.05 in1.3 mm 0.00 in0.0 mm 0.05 in1.3 mm
12:45 AM 49.3°F9.6°C 47.1°F8.4°C 92% 2.1 mph WNW3.4 kmh WNW 7.9 mph12.7 kmh 29.89 in1012.2 mb 0.00 in0.0 mm 0.00 in0.0 mm 0.05 in1.3 mm
01:00 AM 49.3°F9.6°C 47.3°F8.5°C 93% 0.7 mph WNW1.1 kmh WNW 5.0 mph8.0 kmh 29.89 in1012.2 mb 0.05 in1.3 mm 0.07 in1.8 mm 0.09 in2.3 mm
01:15 AM 49.3°F9.6°C 47.3°F8.5°C 93% 2.0 mph W3.2 kmh W 7.5 mph12.1 kmh 29.89 in1012.2 mb 0.09 in2.3 mm 0.16 in4.1 mm 0.14 in3.6 mm
01:30 AM 49.3°F9.6°C 47.3°F8.5°C 93% 2.9 mph W4.7 kmh W 9.3 mph15.0 kmh 29.89 in1012.2 mb 0.09 in2.3 mm 0.00 in0.0 mm 0.14 in3.6 mm
01:45 AM 49.3°F9.6°C 47.3°F8.5°C 93% 3.5 mph W5.6 kmh W 10.0 mph16.1 kmh 29.89 in1012.2 mb 0.09 in2.3 mm 0.00 in0.0 mm 0.14 in3.6 mm
02:00 AM 49.5°F9.7°C 47.5°F8.6°C 93% 2.9 mph WNW4.7 kmh WNW 7.9 mph12.7 kmh 29.89 in1012.2 mb 0.05 in1.3 mm 0.00 in0.0 mm 0.14 in3.6 mm
02:15 AM 49.5°F9.7°C 47.8°F8.8°C 94% 4.7 mph NW7.6 kmh NW 8.9 mph14.3 kmh 29.89 in1012.2 mb 0.00 in0.0 mm 0.00 in0.0 mm 0.14 in3.6 mm
02:30 AM 49.5°F9.7°C 47.8°F8.8°C 94% 6.0 mph NW9.7 kmh NW 10.4 mph16.7 kmh 29.89 in1012.2 mb 0.00 in0.0 mm 0.00 in0.0 mm 0.14 in3.6 mm
02:45 AM 49.3°F9.6°C 47.6°F8.7°C 94% 7.7 mph NW12.4 kmh NW 14.0 mph22.5 kmh 29.89 in1012.2 mb 0.00 in0.0 mm 0.00 in0.0 mm 0.14 in3.6 mm
03:01 AM 49.3°F9.6°C 47.6°F8.7°C 94% 4.6 mph NW7.4 kmh NW 16.1 mph25.9 kmh 29.89 in1012.2 mb 0.05 in1.3 mm 0.07 in1.8 mm 0.18 in4.6 mm
03:15 AM 49.3°F9.6°C 47.6°F8.7°C 94% 4.3 mph WNW6.9 kmh WNW 10.4 mph16.7 kmh 29.89 in1012.2 mb 0.05 in1.3 mm 0.00 in0.0 mm 0.18 in4.6 mm
03:30 AM 49.3°F9.6°C 47.6°F8.7°C 94% 4.1 mph WNW6.6 kmh WNW 11.5 mph18.5 kmh 29.89 in1012.2 mb 0.05 in1.3 mm 0.00 in0.0 mm 0.18 in4.6 mm
03:45 AM 49.1°F9.5°C 47.4°F8.6°C 94% 5.0 mph NW8.0 kmh NW 13.6 mph21.9 kmh 29.89 in1012.2 mb 0.05 in1.3 mm 0.00 in0.0 mm 0.18 in4.6 mm
04:00 AM 49.1°F9.5°C 47.7°F8.7°C 95% 5.3 mph NW8.5 kmh NW 12.2 mph19.6 kmh 29.89 in1012.2 mb 0.00 in0.0 mm 0.00 in0.0 mm 0.18 in4.6 mm
04:15 AM 49.1°F9.5°C 47.7°F8.7°C 95% 4.3 mph NW6.9 kmh NW 9.7 mph15.6 kmh 29.89 in1012.2 mb 0.00 in0.0 mm 0.00 in0.0 mm 0.18 in4.6 mm
04:30 AM 49.1°F9.5°C 47.7°F8.7°C 95% 4.6 mph NW7.4 kmh NW 10.0 mph16.1 kmh 29.89 in1012.2 mb 0.05 in1.3 mm 0.20 in5.1 mm 0.23 in5.8 mm
04:45 AM 49.1°F9.5°C 47.7°F8.7°C 95% 6.4 mph NNW10.3 kmh NNW 12.9 mph20.8 kmh 29.89 in1012.2 mb 0.05 in1.3 mm 0.00 in0.0 mm 0.23 in5.8 mm
05:00 AM 49.3°F9.6°C 47.9°F8.8°C 95% 1.6 mph NW2.6 kmh NW 9.3 mph15.0 kmh 29.89 in1012.2 mb 0.05 in1.3 mm 0.00 in0.0 mm 0.23 in5.8 mm
05:15 AM 49.3°F9.6°C 47.9°F8.8°C 95% 2.4 mph NW3.9 kmh NW 9.7 mph15.6 kmh 29.89 in1012.2 mb 0.10 in2.5 mm 0.20 in5.1 mm 0.29 in7.4 mm
05:30 AM 49.3°F9.6°C 47.9°F8.8°C 95% 3.0 mph NW4.8 kmh NW 8.6 mph13.8 kmh 29.89 in1012.2 mb 0.10 in2.5 mm 0.00 in0.0 mm 0.33 in8.4 mm
05:45 AM 49.3°F9.6°C 47.9°F8.8°C 95% 2.6 mph W4.2 kmh W 9.3 mph15.0 kmh 29.89 in1012.2 mb 0.10 in2.5 mm 0.00 in0.0 mm 0.33 in8.4 mm
06:00 AM 49.3°F9.6°C 47.9°F8.8°C 95% 4.2 mph NW6.8 kmh NW 10.4 mph16.7 kmh 29.89 in1012.2 mb 0.10 in2.5 mm 0.00 in0.0 mm 0.33 in8.4 mm
06:15 AM 49.1°F9.5°C 47.7°F8.7°C 95% 5.7 mph NW9.2 kmh NW 12.5 mph20.1 kmh 29.89 in1012.2 mb 0.05 in1.3 mm 0.00 in0.0 mm 0.33 in8.4 mm
06:30 AM 49.1°F9.5°C 47.7°F8.7°C 95% 6.3 mph NW10.1 kmh NW 11.8 mph19.0 kmh 29.92 in1013.2 mb 0.00 in0.0 mm 0.00 in0.0 mm 0.33 in8.4 mm
06:45 AM 49.3°F9.6°C 47.9°F8.8°C 95% 4.1 mph NW6.6 kmh NW 11.8 mph19.0 kmh 29.92 in1013.2 mb 0.00 in0.0 mm 0.00 in0.0 mm 0.33 in8.4 mm
07:00 AM 49.3°F9.6°C 47.9°F8.8°C 95% 4.8 mph NNW7.7 kmh NNW 10.0 mph16.1 kmh 29.92 in1013.2 mb 0.05 in1.3 mm 0.07 in1.8 mm 0.38 in9.7 mm
07:15 AM 49.3°F9.6°C 47.9°F8.8°C 95% 5.7 mph NW9.2 kmh NW 10.7 mph17.2 kmh 29.92 in1013.2 mb 0.05 in1.3 mm 0.00 in0.0 mm 0.38 in9.7 mm
07:30 AM 49.3°F9.6°C 47.9°F8.8°C 95% 2.8 mph NW4.5 kmh NW 7.5 mph12.1 kmh 29.92 in1013.2 mb 0.05 in1.3 mm 0.00 in0.0 mm 0.38 in9.7 mm
07:45 AM 49.5°F9.7°C 48.1°F8.9°C 95% 2.2 mph NW3.5 kmh NW 6.8 mph10.9 kmh 29.92 in1013.2 mb 0.05 in1.3 mm 0.00 in0.0 mm 0.38 in9.7 mm
08:00 AM 49.6°F9.8°C 48.3°F9.1°C 95% 1.0 mph W1.6 kmh W 5.0 mph8.0 kmh 29.92 in1013.2 mb 0.00 in0.0 mm 0.00 in0.0 mm 0.38 in9.7 mm
08:15 AM 49.8°F9.9°C 48.4°F9.1°C 95% 1.4 mph WNW2.3 kmh WNW 6.4 mph10.3 kmh 29.92 in1013.2 mb 0.05 in1.3 mm 0.20 in5.1 mm 0.43 in10.9 mm
08:30 AM 50.2°F10.1°C 48.8°F9.3°C 95% 3.1 mph WNW5.0 kmh WNW 8.9 mph14.3 kmh 29.92 in1013.2 mb 0.05 in1.3 mm 0.00 in0.0 mm 0.43 in10.9 mm
08:45 AM 50.2°F10.1°C 48.8°F9.3°C 95% 3.7 mph NNW6.0 kmh NNW 10.4 mph16.7 kmh 29.98 in1015.2 mb 0.05 in1.3 mm 0.00 in0.0 mm 0.43 in10.9 mm
09:00 AM 50.2°F10.1°C 48.8°F9.3°C 95% 4.6 mph N7.4 kmh N 8.9 mph14.3 kmh 29.92 in1013.2 mb 0.05 in1.3 mm 0.00 in0.0 mm 0.43 in10.9 mm
09:15 AM 50.5°F10.3°C 49.4°F9.7°C 96% 10.8 mph N17.4 kmh N 17.2 mph27.7 kmh 29.95 in1014.2 mb 0.00 in0.0 mm 0.00 in0.0 mm 0.43 in10.9 mm
09:30 AM 51.4°F10.8°C 50.6°F10.3°C 97% 5.3 mph N8.5 kmh N 14.0 mph22.5 kmh 29.95 in1014.2 mb 0.00 in0.0 mm 0.00 in0.0 mm 0.43 in10.9 mm
09:45 AM 51.8°F11.0°C 50.7°F10.4°C 96% 0.9 mph NNW1.4 kmh NNW 5.7 mph9.2 kmh 29.95 in1014.2 mb 0.00 in0.0 mm 0.00 in0.0 mm 0.43 in10.9 mm
10:00 AM 52.0°F11.1°C 50.9°F10.5°C 96% 1.6 mph N2.6 kmh N 10.0 mph16.1 kmh 29.95 in1014.2 mb 0.00 in0.0 mm 0.00 in0.0 mm 0.43 in10.9 mm
10:15 AM 52.0°F11.1°C 50.6°F10.3°C 95% 2.4 mph N3.9 kmh N 9.7 mph15.6 kmh 29.92 in1013.2 mb 0.00 in0.0 mm 0.00 in0.0 mm 0.43 in10.9 mm
10:30 AM 52.3°F11.3°C 51.2°F10.7°C 96% 0.5 mph E0.8 kmh E 4.3 mph6.9 kmh 29.95 in1014.2 mb 0.05 in1.3 mm 0.20 in5.1 mm 0.47 in11.9 mm
10:45 AM 52.9°F11.6°C 51.8°F11.0°C 96% Calm Calm -- 29.95 in1014.2 mb 0.05 in1.3 mm 0.00 in0.0 mm 0.47 in11.9 mm
11:01 AM 53.8°F12.1°C 52.7°F11.5°C 96% 0.5 mph N0.8 kmh N 4.7 mph7.6 kmh 29.95 in1014.2 mb 0.05 in1.3 mm 0.00 in0.0 mm 0.47 in11.9 mm
11:15 AM 54.1°F12.3°C 52.7°F11.5°C 95% 0.1 mph N0.2 kmh N 1.8 mph2.9 kmh 29.98 in1015.2 mb 0.05 in1.3 mm 0.00 in0.0 mm 0.47 in11.9 mm
11:30 AM 54.5°F12.5°C 53.1°F11.7°C 95% 1.1 mph E1.8 kmh E 6.8 mph10.9 kmh 29.98 in1015.2 mb 0.00 in0.0 mm 0.00 in0.0 mm 0.47 in11.9 mm
11:44 AM 54.7°F12.6°C 53.3°F11.8°C 95% Calm Calm -- 29.98 in1015.2 mb 0.00 in0.0 mm 0.00 in0.0 mm 0.47 in11.9 mm
11:45 AM 54.7°F12.6°C 53.3°F11.8°C 95% Calm Calm -- 29.98 in1015.2 mb 0.00 in0.0 mm 0.00 in0.0 mm 0.47 in11.9 mm
11:46 AM 54.5°F12.5°C 53.1°F11.7°C 95% 1.1 mph NE1.8 kmh NE 3.9 mph6.3 kmh 29.98 in1015.2 mb 0.00 in0.0 mm 0.00 in0.0 mm 0.47 in11.9 mm
11:47 AM 54.5°F12.5°C 53.1°F11.7°C 95% 0.8 mph NE1.3 kmh NE 3.9 mph6.3 kmh 29.98 in1015.2 mb 0.00 in0.0 mm 0.00 in0.0 mm 0.47 in11.9 mm
11:48 AM 54.5°F12.5°C 53.1°F11.7°C 95% 0.6 mph NE1.0 kmh NE 3.9 mph6.3 kmh 29.98 in1015.2 mb 0.00 in0.0 mm 0.00 in0.0 mm 0.47 in11.9 mm
11:49 AM 54.5°F12.5°C 52.8°F11.6°C 94% 1.1 mph ENE1.8 kmh ENE 3.9 mph6.3 kmh 29.98 in1015.2 mb 0.00 in0.0 mm 0.00 in0.0 mm 0.47 in11.9 mm
11:50 AM 54.5°F12.5°C 52.8°F11.6°C 94% 0.9 mph ENE1.4 kmh ENE 3.9 mph6.3 kmh 29.98 in1015.2 mb 0.00 in0.0 mm 0.00 in0.0 mm 0.47 in11.9 mm
11:51 AM 54.5°F12.5°C 52.8°F11.6°C 94% 0.8 mph ENE1.3 kmh ENE 3.9 mph6.3 kmh 29.98 in1015.2 mb 0.00 in0.0 mm 0.00 in0.0 mm 0.47 in11.9 mm
11:52 AM 54.5°F12.5°C 52.8°F11.6°C 94% 0.7 mph ENE1.1 kmh ENE 3.9 mph6.3 kmh 29.98 in1015.2 mb 0.00 in0.0 mm 0.00 in0.0 mm 0.47 in11.9 mm
11:53 AM 54.5°F12.5°C 52.8°F11.6°C 94% 0.6 mph ENE1.0 kmh ENE 3.9 mph6.3 kmh 29.98 in1015.2 mb 0.00 in0.0 mm 0.00 in0.0 mm 0.47 in11.9 mm
11:54 AM 54.5°F12.5°C 52.8°F11.6°C 94% 0.6 mph ENE1.0 kmh ENE 3.9 mph6.3 kmh 29.98 in1015.2 mb 0.00 in0.0 mm 0.00 in0.0 mm 0.47 in11.9 mm
11:55 AM 54.5°F12.5°C 52.8°F11.6°C 94% 0.6 mph ENE1.0 kmh ENE 3.9 mph6.3 kmh 29.98 in1015.2 mb 0.00 in0.0 mm 0.00 in0.0 mm 0.47 in11.9 mm
11:56 AM 54.5°F12.5°C 52.8°F11.6°C 94% 0.3 mph E0.5 kmh E 3.9 mph6.3 kmh 29.98 in1015.2 mb 0.00 in0.0 mm 0.00 in0.0 mm 0.47 in11.9 mm
11:57 AM 54.5°F12.5°C 52.8°F11.6°C 94% 0.3 mph E0.5 kmh E 3.9 mph6.3 kmh 29.98 in1015.2 mb 0.00 in0.0 mm 0.00 in0.0 mm 0.47 in11.9 mm
11:58 AM 54.5°F12.5°C 52.8°F11.6°C 94% 0.3 mph E0.5 kmh E 3.9 mph6.3 kmh 29.98 in1015.2 mb 0.00 in0.0 mm 0.00 in0.0 mm 0.47 in11.9 mm
11:59 AM 54.5°F12.5°C 52.8°F11.6°C 94% Calm Calm -- 29.98 in1015.2 mb 0.00 in0.0 mm 0.00 in0.0 mm 0.47 in11.9 mm
12:00 PM 54.5°F12.5°C 52.8°F11.6°C 94% Calm Calm -- 29.98 in1015.2 mb 0.00 in0.0 mm 0.00 in0.0 mm 0.47 in11.9 mm
12:01 PM 54.5°F12.5°C 52.8°F11.6°C 94% Calm Calm -- 29.98 in1015.2 mb 0.00 in0.0 mm 0.00 in0.0 mm 0.47 in11.9 mm
12:02 PM 54.3°F12.4°C 52.6°F11.4°C 94% Calm Calm -- 29.98 in1015.2 mb 0.00 in0.0 mm 0.00 in0.0 mm 0.47 in11.9 mm
12:03 PM 54.3°F12.4°C 52.6°F11.4°C 94% 0.1 mph NE0.2 kmh NE 1.4 mph2.3 kmh 29.98 in1015.2 mb 0.00 in0.0 mm 0.00 in0.0 mm 0.47 in11.9 mm
12:04 PM 54.3°F12.4°C 52.3°F11.3°C 93% 0.1 mph NE0.2 kmh NE 1.4 mph2.3 kmh 29.98 in1015.2 mb 0.00 in0.0 mm 0.00 in0.0 mm 0.47 in11.9 mm
12:05 PM 54.3°F12.4°C 52.3°F11.3°C 93% 0.1 mph NE0.2 kmh NE 1.4 mph2.3 kmh 29.98 in1015.2 mb 0.00 in0.0 mm 0.00 in0.0 mm 0.47 in11.9 mm
12:06 PM 54.3°F12.4°C 52.3°F11.3°C 93% 0.1 mph NE0.2 kmh NE 1.4 mph2.3 kmh 29.98 in1015.2 mb 0.00 in0.0 mm 0.00 in0.0 mm 0.47 in11.9 mm
12:07 PM 54.3°F12.4°C 52.3°F11.3°C 93% 0.1 mph NE0.2 kmh NE 1.4 mph2.3 kmh 29.98 in1015.2 mb 0.00 in0.0 mm 0.00 in0.0 mm 0.47 in11.9 mm
12:08 PM 54.1°F12.3°C 52.2°F11.2°C 93% 0.1 mph NE0.2 kmh NE 1.4 mph2.3 kmh 29.98 in1015.2 mb 0.00 in0.0 mm 0.00 in0.0 mm 0.47 in11.9 mm
12:09 PM 54.1°F12.3°C 52.2°F11.2°C 93% 0.1 mph NE0.2 kmh NE 1.4 mph2.3 kmh 29.98 in1015.2 mb 0.00 in0.0 mm 0.00 in0.0 mm 0.47 in11.9 mm
12:10 PM 54.1°F12.3°C 52.2°F11.2°C 93% 0.1 mph NE0.2 kmh NE 1.4 mph2.3 kmh 29.98 in1015.2 mb 0.00 in0.0 mm 0.00 in0.0 mm 0.47 in11.9 mm
12:11 PM 54.1°F12.3°C 52.2°F11.2°C 93% 0.1 mph NE0.2 kmh NE 1.4 mph2.3 kmh 29.98 in1015.2 mb 0.00 in0.0 mm 0.00 in0.0 mm 0.47 in11.9 mm
12:12 PM 54.1°F12.3°C 52.2°F11.2°C 93% 0.1 mph NE0.2 kmh NE 1.4 mph2.3 kmh 29.98 in1015.2 mb 0.00 in0.0 mm 0.00 in0.0 mm 0.47 in11.9 mm
12:13 PM 54.1°F12.3°C 52.2°F11.2°C 93% 0.3 mph E0.5 kmh E 4.3 mph6.9 kmh 29.98 in1015.2 mb 0.00 in0.0 mm 0.00 in0.0 mm 0.47 in11.9 mm
12:14 PM 54.1°F12.3°C 52.2°F11.2°C 93% 0.3 mph E0.5 kmh E 4.3 mph6.9 kmh 29.98 in1015.2 mb 0.00 in0.0 mm 0.00 in0.0 mm 0.47 in11.9 mm
12:15 PM 54.1°F12.3°C 52.2°F11.2°C 93% 0.6 mph E1.0 kmh E 4.3 mph6.9 kmh 29.98 in1015.2 mb 0.00 in0.0 mm 0.00 in0.0 mm 0.47 in11.9 mm
12:16 PM 54.1°F12.3°C 52.2°F11.2°C 93% 0.6 mph E1.0 kmh E 4.3 mph6.9 kmh 29.98 in1015.2 mb 0.00 in0.0 mm 0.00 in0.0 mm 0.47 in11.9 mm
12:17 PM 54.1°F12.3°C 52.2°F11.2°C 93% 0.6 mph E1.0 kmh E 4.3 mph6.9 kmh 29.98 in1015.2 mb 0.00 in0.0 mm 0.00 in0.0 mm 0.47 in11.9 mm
12:18 PM 54.1°F12.3°C 52.2°F11.2°C 93% 0.6 mph E1.0 kmh E 4.3 mph6.9 kmh 29.98 in1015.2 mb 0.00 in0.0 mm 0.00 in0.0 mm 0.47 in11.9 mm
12:19 PM 54.1°F12.3°C 52.2°F11.2°C 93% 0.6 mph E1.0 kmh E 4.3 mph6.9 kmh 29.98 in1015.2 mb 0.00 in0.0 mm 0.00 in0.0 mm 0.47 in11.9 mm
12:20 PM 54.1°F12.3°C 52.2°F11.2°C 93% 0.6 mph E1.0 kmh E 4.3 mph6.9 kmh 29.98 in1015.2 mb 0.00 in0.0 mm 0.00 in0.0 mm 0.47 in11.9 mm
12:21 PM 54.3°F12.4°C 52.3°F11.3°C 93% 0.6 mph E1.0 kmh E 4.3 mph6.9 kmh 29.98 in1015.2 mb 0.00 in0.0 mm 0.00 in0.0 mm 0.47 in11.9 mm
12:22 PM 54.3°F12.4°C 52.3°F11.3°C 93% 0.6 mph E1.0 kmh E 4.3 mph6.9 kmh 30.01 in1016.3 mb 0.00 in0.0 mm 0.00 in0.0 mm 0.47 in11.9 mm
12:23 PM 54.3°F12.4°C 52.3°F11.3°C 93% 0.3 mph ESE0.5 kmh ESE 3.6 mph5.8 kmh 30.01 in1016.3 mb 0.00 in0.0 mm 0.00 in0.0 mm 0.47 in11.9 mm
12:24 PM 54.3°F12.4°C 52.3°F11.3°C 93% 0.3 mph ESE0.5 kmh ESE 3.6 mph5.8 kmh 30.01 in1016.3 mb 0.00 in0.0 mm 0.00 in0.0 mm 0.47 in11.9 mm
12:25 PM 54.3°F12.4°C 52.6°F11.4°C 94% Calm Calm -- 30.01 in1016.3 mb 0.00 in0.0 mm 0.00 in0.0 mm 0.47 in11.9 mm
12:26 PM 54.3°F12.4°C 52.6°F11.4°C 94% Calm Calm -- 30.01 in1016.3 mb 0.00 in0.0 mm 0.00 in0.0 mm 0.47 in11.9 mm
12:27 PM 54.3°F12.4°C 52.6°F11.4°C 94% Calm Calm -- 30.01 in1016.3 mb 0.00 in0.0 mm 0.00 in0.0 mm 0.47 in11.9 mm
12:28 PM 54.3°F12.4°C 52.3°F11.3°C 93% Calm Calm -- 30.01 in1016.3 mb 0.00 in0.0 mm 0.00 in0.0 mm 0.47 in11.9 mm
12:29 PM 54.3°F12.4°C 52.3°F11.3°C 93% Calm Calm -- 30.01 in1016.3 mb 0.00 in0.0 mm 0.00 in0.0 mm 0.47 in11.9 mm
12:30 PM 54.3°F12.4°C 52.3°F11.3°C 93% Calm Calm -- 30.01 in1016.3 mb 0.00 in0.0 mm 0.00 in0.0 mm 0.47 in11.9 mm
12:31 PM 54.3°F12.4°C 52.3°F11.3°C 93% Calm Calm -- 30.01 in1016.3 mb 0.00 in0.0 mm 0.00 in0.0 mm 0.47 in11.9 mm
12:32 PM 54.1°F12.3°C 52.2°F11.2°C 93% Calm Calm -- 30.01 in1016.3 mb 0.00 in0.0 mm 0.00 in0.0 mm 0.47 in11.9 mm
12:33 PM 54.1°F12.3°C 52.2°F11.2°C 93% Calm Calm -- 30.01 in1016.3 mb 0.00 in0.0 mm 0.00 in0.0 mm 0.47 in11.9 mm
12:34 PM 54.1°F12.3°C 52.2°F11.2°C 93% Calm Calm -- 30.01 in1016.3 mb 0.00 in0.0 mm 0.00 in0.0 mm 0.47 in11.9 mm
12:35 PM 54.3°F12.4°C 52.3°F11.3°C 93% Calm Calm -- 30.01 in1016.3 mb 0.00 in0.0 mm 0.00 in0.0 mm 0.47 in11.9 mm
12:36 PM 54.3°F12.4°C 52.6°F11.4°C 94% Calm Calm -- 30.01 in1016.3 mb 0.00 in0.0 mm 0.00 in0.0 mm 0.47 in11.9 mm
12:37 PM 54.3°F12.4°C 52.6°F11.4°C 94% Calm Calm -- 30.01 in1016.3 mb 0.00 in0.0 mm 0.00 in0.0 mm 0.47 in11.9 mm
12:38 PM 54.3°F12.4°C 52.6°F11.4°C 94% Calm Calm -- 30.01 in1016.3 mb 0.05 in1.3 mm 3.00 in76.2 mm 0.52 in13.2 mm
12:39 PM 54.5°F12.5°C 52.8°F11.6°C 94% Calm Calm -- 30.01 in1016.3 mb 0.05 in1.3 mm 0.00 in0.0 mm 0.52 in13.2 mm
12:40 PM 54.5°F12.5°C 52.8°F11.6°C 94% Calm Calm -- 30.01 in1016.3 mb 0.05 in1.3 mm 0.00 in0.0 mm 0.52 in13.2 mm
12:41 PM 54.5°F12.5°C 52.8°F11.6°C 94% Calm Calm -- 30.01 in1016.3 mb 0.05 in1.3 mm 0.00 in0.0 mm 0.52 in13.2 mm
12:42 PM 54.7°F12.6°C 53.0°F11.7°C 94% Calm Calm -- 30.01 in1016.3 mb 0.05 in1.3 mm 0.00 in0.0 mm 0.52 in13.2 mm
12:43 PM 54.7°F12.6°C 53.0°F11.7°C 94% Calm Calm -- 30.01 in1016.3 mb 0.05 in1.3 mm 0.00 in0.0 mm 0.52 in13.2 mm
12:44 PM 54.9°F12.7°C 53.2°F11.8°C 94% Calm Calm -- 30.01 in1016.3 mb 0.05 in1.3 mm 0.00 in0.0 mm 0.52 in13.2 mm
12:45 PM 54.9°F12.7°C 53.2°F11.8°C 94% Calm Calm -- 30.01 in1016.3 mb 0.05 in1.3 mm 0.00 in0.0 mm 0.52 in13.2 mm
12:46 PM 54.9°F12.7°C 53.2°F11.8°C 94% Calm Calm -- 30.01 in1016.3 mb 0.05 in1.3 mm 0.00 in0.0 mm 0.52 in13.2 mm
12:47 PM 54.9°F12.7°C 53.2°F11.8°C 94% Calm Calm -- 30.01 in1016.3 mb 0.05 in1.3 mm 0.00 in0.0 mm 0.52 in13.2 mm
12:48 PM 54.9°F12.7°C 53.2°F11.8°C 94% Calm Calm -- 30.01 in1016.3 mb 0.05 in1.3 mm 0.00 in0.0 mm 0.52 in13.2 mm
12:49 PM 54.9°F12.7°C 53.2°F11.8°C 94% Calm Calm -- 30.01 in1016.3 mb 0.05 in1.3 mm 0.00 in0.0 mm 0.52 in13.2 mm
12:50 PM 54.9°F12.7°C 53.2°F11.8°C 94% Calm Calm -- 30.01 in1016.3 mb 0.05 in1.3 mm 0.00 in0.0 mm 0.52 in13.2 mm
12:51 PM 54.9°F12.7°C 53.2°F11.8°C 94% Calm Calm -- 30.01 in1016.3 mb 0.05 in1.3 mm 0.00 in0.0 mm 0.52 in13.2 mm
12:52 PM 54.9°F12.7°C 53.2°F11.8°C 94% Calm Calm -- 30.01 in1016.3 mb 0.05 in1.3 mm 0.00 in0.0 mm 0.52 in13.2 mm
12:53 PM 54.7°F12.6°C 53.0°F11.7°C 94% Calm Calm -- 30.01 in1016.3 mb 0.05 in1.3 mm 0.00 in0.0 mm 0.52 in13.2 mm
12:54 PM 54.7°F12.6°C 53.0°F11.7°C 94% Calm Calm -- 30.01 in1016.3 mb 0.05 in1.3 mm 0.00 in0.0 mm 0.52 in13.2 mm
12:55 PM 54.7°F12.6°C 53.0°F11.7°C 94% Calm Calm -- 30.01 in1016.3 mb 0.05 in1.3 mm 0.00 in0.0 mm 0.52 in13.2 mm
12:56 PM 54.7°F12.6°C 53.0°F11.7°C 94% Calm Calm -- 30.01 in1016.3 mb 0.05 in1.3 mm 0.00 in0.0 mm 0.52 in13.2 mm
12:57 PM 54.7°F12.6°C 52.7°F11.5°C 93% Calm Calm -- 30.01 in1016.3 mb 0.05 in1.3 mm 0.00 in0.0 mm 0.52 in13.2 mm
12:58 PM 54.7°F12.6°C 52.7°F11.5°C 93% Calm Calm -- 30.01 in1016.3 mb 0.05 in1.3 mm 0.00 in0.0 mm 0.52 in13.2 mm
12:59 PM 54.7°F12.6°C 53.0°F11.7°C 94% Calm Calm -- 30.01 in1016.3 mb 0.05 in1.3 mm 0.00 in0.0 mm 0.52 in13.2 mm
01:00 PM 54.7°F12.6°C 53.0°F11.7°C 94% Calm Calm -- 30.01 in1016.3 mb 0.05 in1.3 mm 0.00 in0.0 mm 0.52 in13.2 mm
01:01 PM 54.7°F12.6°C 53.0°F11.7°C 94% Calm Calm -- 30.01 in1016.3 mb 0.05 in1.3 mm 0.00 in0.0 mm 0.52 in13.2 mm
01:02 PM 54.9°F12.7°C 53.2°F11.8°C 94% Calm Calm -- 30.01 in1016.3 mb 0.05 in1.3 mm 0.00 in0.0 mm 0.52 in13.2 mm
01:03 PM 54.9°F12.7°C 53.2°F11.8°C 94% Calm Calm -- 30.01 in1016.3 mb 0.05 in1.3 mm 0.00 in0.0 mm 0.52 in13.2 mm
01:04 PM 54.9°F12.7°C 53.2°F11.8°C 94% Calm Calm -- 30.01 in1016.3 mb 0.05 in1.3 mm 0.00 in0.0 mm 0.52 in13.2 mm
01:05 PM 54.9°F12.7°C 53.2°F11.8°C 94% Calm Calm -- 30.01 in1016.3 mb 0.05 in1.3 mm 0.00 in0.0 mm 0.52 in13.2 mm
01:06 PM 54.9°F12.7°C 53.2°F11.8°C 94% Calm Calm -- 30.01 in1016.3 mb 0.05 in1.3 mm 0.00 in0.0 mm 0.52 in13.2 mm
01:07 PM 55.0°F12.8°C 53.3°F11.8°C 94% Calm Calm -- 29.98 in1015.2 mb 0.05 in1.3 mm 0.00 in0.0 mm 0.52 in13.2 mm
01:08 PM 55.0°F12.8°C 53.3°F11.8°C 94% Calm Calm -- 29.98 in1015.2 mb 0.05 in1.3 mm 0.00 in0.0 mm 0.52 in13.2 mm
01:09 PM 55.0°F12.8°C 53.3°F11.8°C 94% Calm Calm -- 29.98 in1015.2 mb 0.05 in1.3 mm 0.00 in0.0 mm 0.52 in13.2 mm
01:10 PM 55.0°F12.8°C 53.3°F11.8°C 94% Calm Calm -- 29.98 in1015.2 mb 0.05 in1.3 mm 0.00 in0.0 mm 0.52 in13.2 mm
01:11 PM 55.2°F12.9°C 53.5°F11.9°C 94% Calm Calm -- 29.98 in1015.2 mb 0.05 in1.3 mm 0.00 in0.0 mm 0.52 in13.2 mm
01:12 PM 55.2°F12.9°C 53.5°F11.9°C 94% Calm Calm -- 29.98 in1015.2 mb 0.05 in1.3 mm 0.00 in0.0 mm 0.52 in13.2 mm
01:13 PM 55.2°F12.9°C 53.5°F11.9°C 94% Calm Calm -- 29.98 in1015.2 mb 0.05 in1.3 mm 0.00 in0.0 mm 0.52 in13.2 mm
01:14 PM 55.4°F13.0°C 53.7°F12.1°C 94% Calm Calm -- 29.98 in1015.2 mb 0.05 in1.3 mm 0.00 in0.0 mm 0.52 in13.2 mm
01:15 PM 55.4°F13.0°C 53.7°F12.1°C 94% Calm Calm -- 29.98 in1015.2 mb 0.05 in1.3 mm 0.00 in0.0 mm 0.52 in13.2 mm
01:16 PM 55.4°F13.0°C 53.7°F12.1°C 94% Calm Calm -- 29.98 in1015.2 mb 0.05 in1.3 mm 0.00 in0.0 mm 0.52 in13.2 mm
01:17 PM 55.4°F13.0°C 53.7°F12.1°C 94% Calm Calm -- 29.98 in1015.2 mb 0.05 in1.3 mm 0.00 in0.0 mm 0.52 in13.2 mm
01:18 PM 55.4°F13.0°C 53.7°F12.1°C 94% Calm Calm -- 29.98 in1015.2 mb 0.05 in1.3 mm 0.00 in0.0 mm 0.52 in13.2 mm
01:19 PM 55.6°F13.1°C 53.9°F12.2°C 94% Calm Calm -- 29.98 in1015.2 mb 0.05 in1.3 mm 0.00 in0.0 mm 0.52 in13.2 mm
01:20 PM 55.6°F13.1°C 53.9°F12.2°C 94% Calm Calm -- 29.98 in1015.2 mb 0.05 in1.3 mm 0.00 in0.0 mm 0.52 in13.2 mm
01:21 PM 55.8°F13.2°C 54.1°F12.3°C 94% Calm Calm -- 29.98 in1015.2 mb 0.05 in1.3 mm 0.00 in0.0 mm 0.52 in13.2 mm
01:22 PM 55.8°F13.2°C 54.1°F12.3°C 94% Calm Calm -- 30.01 in1016.3 mb 0.05 in1.3 mm 0.00 in0.0 mm 0.52 in13.2 mm
01:23 PM 55.8°F13.2°C 54.1°F12.3°C 94% Calm Calm -- 30.01 in1016.3 mb 0.05 in1.3 mm 0.00 in0.0 mm 0.52 in13.2 mm
01:24 PM 55.8°F13.2°C 54.1°F12.3°C 94% 0.6 mph S1.0 kmh S 6.8 mph10.9 kmh 30.01 in1016.3 mb 0.05 in1.3 mm 0.00 in0.0 mm 0.52 in13.2 mm
01:25 PM 55.8°F13.2°C 54.1°F12.3°C 94% 0.9 mph S1.4 kmh S 6.8 mph10.9 kmh 30.01 in1016.3 mb 0.05 in1.3 mm 0.00 in0.0 mm 0.52 in13.2 mm
01:26 PM 55.8°F13.2°C 54.1°F12.3°C 94% 1.3 mph S2.1 kmh S 6.8 mph10.9 kmh 30.01 in1016.3 mb 0.05 in1.3 mm 0.00 in0.0 mm 0.52 in13.2 mm
01:27 PM 55.8°F13.2°C 54.1°F12.3°C 94% 1.7 mph S2.7 kmh S 6.8 mph10.9 kmh 30.01 in1016.3 mb 0.05 in1.3 mm 0.00 in0.0 mm 0.52 in13.2 mm
01:28 PM 55.8°F13.2°C 54.1°F12.3°C 94% 2.1 mph S3.4 kmh S 6.8 mph10.9 kmh 30.01 in1016.3 mb 0.05 in1.3 mm 0.00 in0.0 mm 0.52 in13.2 mm
01:29 PM 55.8°F13.2°C 53.8°F12.1°C 93% 2.5 mph S4.0 kmh S 6.8 mph10.9 kmh 30.01 in1016.3 mb 0.05 in1.3 mm 0.00 in0.0 mm 0.52 in13.2 mm
01:30 PM 55.6°F13.1°C 53.6°F12.0°C 93% 3.0 mph S4.8 kmh S 6.8 mph10.9 kmh 30.01 in1016.3 mb 0.05 in1.3 mm 0.00 in0.0 mm 0.52 in13.2 mm
01:45 PM 55.2°F12.9°C 52.9°F11.6°C 92% 2.8 mph WSW4.5 kmh WSW 7.5 mph12.1 kmh 30.04 in1017.3 mb 0.00 in0.0 mm 0.00 in0.0 mm 0.52 in13.2 mm
02:00 PM 55.0°F12.8°C 52.8°F11.6°C 92% 0.3 mph WSW0.5 kmh WSW 3.9 mph6.3 kmh 30.04 in1017.3 mb 0.00 in0.0 mm 0.00 in0.0 mm 0.52 in13.2 mm
02:20 PM 54.3°F12.4°C 51.7°F10.9°C 91% 0.2 mph NW0.3 kmh NW 3.6 mph5.8 kmh 30.04 in1017.3 mb 0.00 in0.0 mm 0.00 in0.0 mm 0.52 in13.2 mm
02:30 PM 54.1°F12.3°C 51.6°F10.9°C 91% Calm Calm 1.8 mph2.9 kmh 30.04 in1017.3 mb 0.00 in0.0 mm 0.00 in0.0 mm 0.52 in13.2 mm
02:40 PM 54.3°F12.4°C 52.0°F11.1°C 92% Calm Calm -- 30.04 in1017.3 mb 0.00 in0.0 mm 0.00 in0.0 mm 0.52 in13.2 mm
02:50 PM 54.5°F12.5°C 52.2°F11.2°C 92% Calm Calm -- 30.04 in1017.3 mb 0.00 in0.0 mm 0.00 in0.0 mm 0.52 in13.2 mm
03:00 PM 54.7°F12.6°C 52.4°F11.3°C 92% Calm Calm -- 30.07 in1018.3 mb 0.00 in0.0 mm 0.00 in0.0 mm 0.52 in13.2 mm
03:10 PM 54.7°F12.6°C 52.4°F11.3°C 92% Calm Calm -- 30.07 in1018.3 mb 0.00 in0.0 mm 0.00 in0.0 mm 0.52 in13.2 mm
03:20 PM 54.7°F12.6°C 52.4°F11.3°C 92% Calm Calm -- 30.07 in1018.3 mb 0.00 in0.0 mm 0.00 in0.0 mm 0.52 in13.2 mm
03:30 PM 54.9°F12.7°C 52.6°F11.4°C 92% Calm Calm -- 30.07 in1018.3 mb 0.00 in0.0 mm 0.00 in0.0 mm 0.52 in13.2 mm
03:40 PM 55.0°F12.8°C 52.8°F11.6°C 92% Calm Calm -- 30.07 in1018.3 mb 0.05 in1.3 mm 0.30 in7.6 mm 0.56 in14.2 mm
03:50 PM 55.6°F13.1°C 53.3°F11.8°C 92% Calm Calm -- 30.04 in1017.3 mb 0.05 in1.3 mm 0.00 in0.0 mm 0.56 in14.2 mm
04:00 PM 55.9°F13.3°C 53.6°F12.0°C 92% Calm Calm -- 30.04 in1017.3 mb 0.05 in1.3 mm 0.00 in0.0 mm 0.56 in14.2 mm
04:10 PM 56.5°F13.6°C 54.2°F12.3°C 92% Calm Calm -- 30.04 in1017.3 mb 0.05 in1.3 mm 0.00 in0.0 mm 0.56 in14.2 mm
04:20 PM 56.7°F13.7°C 54.1°F12.3°C 91% 0.1 mph NW0.2 kmh NW 1.8 mph2.9 kmh 30.07 in1018.3 mb 0.05 in1.3 mm 0.00 in0.0 mm 0.56 in14.2 mm
04:30 PM 56.7°F13.7°C 53.8°F12.1°C 90% Calm Calm -- 30.07 in1018.3 mb 0.05 in1.3 mm 0.00 in0.0 mm 0.56 in14.2 mm
04:40 PM 56.5°F13.6°C 53.6°F12.0°C 90% Calm Calm -- 30.07 in1018.3 mb 0.00 in0.0 mm 0.00 in0.0 mm 0.56 in14.2 mm
04:50 PM 56.3°F13.5°C 53.1°F11.7°C 89% Calm Calm -- 30.07 in1018.3 mb 0.00 in0.0 mm 0.00 in0.0 mm 0.56 in14.2 mm
05:01 PM 56.1°F13.4°C 52.9°F11.6°C 89% Calm Calm -- 30.07 in1018.3 mb 0.00 in0.0 mm 0.00 in0.0 mm 0.56 in14.2 mm
05:02 PM 56.1°F13.4°C 52.9°F11.6°C 89% Calm Calm -- 30.07 in1018.3 mb 0.00 in0.0 mm 0.00 in0.0 mm 0.56 in14.2 mm
05:03 PM 56.1°F13.4°C 52.9°F11.6°C 89% Calm Calm -- 30.07 in1018.3 mb 0.00 in0.0 mm 0.00 in0.0 mm 0.56 in14.2 mm
05:04 PM 55.9°F13.3°C 52.7°F11.5°C 89% Calm Calm -- 30.07 in1018.3 mb 0.00 in0.0 mm 0.00 in0.0 mm 0.56 in14.2 mm
05:05 PM 55.9°F13.3°C 52.7°F11.5°C 89% Calm Calm -- 30.07 in1018.3 mb 0.00 in0.0 mm 0.00 in0.0 mm 0.56 in14.2 mm
05:06 PM 55.9°F13.3°C 52.7°F11.5°C 89% Calm Calm -- 30.07 in1018.3 mb 0.00 in0.0 mm 0.00 in0.0 mm 0.56 in14.2 mm
05:07 PM 55.9°F13.3°C 52.7°F11.5°C 89% Calm Calm -- 30.07 in1018.3 mb 0.00 in0.0 mm 0.00 in0.0 mm 0.56 in14.2 mm
05:08 PM 55.9°F13.3°C 52.7°F11.5°C 89% Calm Calm -- 30.07 in1018.3 mb 0.00 in0.0 mm 0.00 in0.0 mm 0.56 in14.2 mm
05:09 PM 55.9°F13.3°C 52.7°F11.5°C 89% Calm Calm -- 30.07 in1018.3 mb 0.00 in0.0 mm 0.00 in0.0 mm 0.56 in14.2 mm
05:10 PM 55.8°F13.2°C 52.6°F11.4°C 89% Calm Calm -- 30.07 in1018.3 mb 0.00 in0.0 mm 0.00 in0.0 mm 0.56 in14.2 mm
05:11 PM 55.8°F13.2°C 52.6°F11.4°C 89% Calm Calm -- 30.07 in1018.3 mb 0.00 in0.0 mm 0.00 in0.0 mm 0.56 in14.2 mm
05:12 PM 55.8°F13.2°C 52.6°F11.4°C 89% Calm Calm -- 30.07 in1018.3 mb 0.00 in0.0 mm 0.00 in0.0 mm 0.56 in14.2 mm
05:13 PM 55.8°F13.2°C 52.6°F11.4°C 89% Calm Calm -- 30.07 in1018.3 mb 0.00 in0.0 mm 0.00 in0.0 mm 0.56 in14.2 mm
05:14 PM 55.8°F13.2°C 52.6°F11.4°C 89% Calm Calm -- 30.07 in1018.3 mb 0.00 in0.0 mm 0.00 in0.0 mm 0.56 in14.2 mm
05:15 PM 55.8°F13.2°C 52.6°F11.4°C 89% Calm Calm -- 30.07 in1018.3 mb 0.00 in0.0 mm 0.00 in0.0 mm 0.56 in14.2 mm
05:16 PM 55.8°F13.2°C 52.6°F11.4°C 89% Calm Calm -- 30.07 in1018.3 mb 0.00 in0.0 mm 0.00 in0.0 mm 0.56 in14.2 mm
05:17 PM 55.6°F13.1°C 52.4°F11.3°C 89% Calm Calm -- 30.07 in1018.3 mb 0.00 in0.0 mm 0.00 in0.0 mm 0.56 in14.2 mm
05:18 PM 55.6°F13.1°C 52.7°F11.5°C 90% Calm Calm -- 30.07 in1018.3 mb 0.00 in0.0 mm 0.00 in0.0 mm 0.56 in14.2 mm
05:19 PM 55.6°F13.1°C 52.7°F11.5°C 90% Calm Calm -- 30.07 in1018.3 mb 0.00 in0.0 mm 0.00 in0.0 mm 0.56 in14.2 mm
05:20 PM 55.6°F13.1°C 52.7°F11.5°C 90% 0.1 mph W0.2 kmh W 1.4 mph2.3 kmh 30.07 in1018.3 mb 0.00 in0.0 mm 0.00 in0.0 mm 0.56 in14.2 mm
05:21 PM 55.6°F13.1°C 52.7°F11.5°C 90% 0.3 mph W0.5 kmh W 2.5 mph4.0 kmh 30.07 in1018.3 mb 0.00 in0.0 mm 0.00 in0.0 mm 0.56 in14.2 mm
05:22 PM 55.6°F13.1°C 52.7°F11.5°C 90% 0.3 mph W0.5 kmh W 2.5 mph4.0 kmh 30.07 in1018.3 mb 0.00 in0.0 mm 0.00 in0.0 mm 0.56 in14.2 mm
05:23 PM 55.6°F13.1°C 52.7°F11.5°C 90% 0.6 mph W1.0 kmh W 3.9 mph6.3 kmh 30.07 in1018.3 mb 0.00 in0.0 mm 0.00 in0.0 mm 0.56 in14.2 mm
05:24 PM 55.6°F13.1°C 52.7°F11.5°C 90% 0.6 mph W1.0 kmh W 3.9 mph6.3 kmh 30.07 in1018.3 mb 0.00 in0.0 mm 0.00 in0.0 mm 0.56 in14.2 mm
05:25 PM 55.6°F13.1°C 52.7°F11.5°C 90% 0.6 mph W1.0 kmh W 3.9 mph6.3 kmh 30.07 in1018.3 mb 0.00 in0.0 mm 0.00 in0.0 mm 0.56 in14.2 mm
05:26 PM 55.6°F13.1°C 52.7°F11.5°C 90% 0.6 mph W1.0 kmh W 3.9 mph6.3 kmh 30.07 in1018.3 mb 0.00 in0.0 mm 0.00 in0.0 mm 0.56 in14.2 mm
05:27 PM 55.6°F13.1°C 52.7°F11.5°C 90% 0.6 mph W1.0 kmh W 3.9 mph6.3 kmh 30.07 in1018.3 mb 0.00 in0.0 mm 0.00 in0.0 mm 0.56 in14.2 mm
05:28 PM 55.4°F13.0°C 52.5°F11.4°C 90% 0.6 mph W1.0 kmh W 3.9 mph6.3 kmh 30.07 in1018.3 mb 0.00 in0.0 mm 0.00 in0.0 mm 0.56 in14.2 mm
05:29 PM 55.4°F13.0°C 52.5°F11.4°C 90% 0.6 mph W1.0 kmh W 3.9 mph6.3 kmh 30.07 in1018.3 mb 0.00 in0.0 mm 0.00 in0.0 mm 0.56 in14.2 mm
05:30 PM 55.4°F13.0°C 52.5°F11.4°C 90% 0.5 mph W0.8 kmh W 3.9 mph6.3 kmh 30.07 in1018.3 mb 0.00 in0.0 mm 0.00 in0.0 mm 0.56 in14.2 mm
05:31 PM 55.4°F13.0°C 52.5°F11.4°C 90% 0.3 mph W0.5 kmh W 3.9 mph6.3 kmh 30.07 in1018.3 mb 0.00 in0.0 mm 0.00 in0.0 mm 0.56 in14.2 mm
05:32 PM 55.4°F13.0°C 52.5°F11.4°C 90% 0.3 mph W0.5 kmh W 3.9 mph6.3 kmh 30.07 in1018.3 mb 0.00 in0.0 mm 0.00 in0.0 mm 0.56 in14.2 mm
05:33 PM 55.4°F13.0°C 52.5°F11.4°C 90% Calm Calm -- 30.07 in1018.3 mb 0.00 in0.0 mm 0.00 in0.0 mm 0.56 in14.2 mm
05:34 PM 55.4°F13.0°C 52.5°F11.4°C 90% Calm Calm -- 30.07 in1018.3 mb 0.00 in0.0 mm 0.00 in0.0 mm 0.56 in14.2 mm
05:35 PM 55.4°F13.0°C 52.5°F11.4°C 90% Calm Calm -- 30.07 in1018.3 mb 0.00 in0.0 mm 0.00 in0.0 mm 0.56 in14.2 mm
05:36 PM 55.2°F12.9°C 52.3°F11.3°C 90% Calm Calm -- 30.07 in1018.3 mb 0.00 in0.0 mm 0.00 in0.0 mm 0.56 in14.2 mm
05:37 PM 55.2°F12.9°C 52.3°F11.3°C 90% Calm Calm -- 30.09 in1019.0 mb 0.00 in0.0 mm 0.00 in0.0 mm 0.56 in14.2 mm
05:38 PM 55.2°F12.9°C 52.3°F11.3°C 90% Calm Calm -- 30.09 in1019.0 mb 0.00 in0.0 mm 0.00 in0.0 mm 0.56 in14.2 mm
05:39 PM 55.0°F12.8°C 52.2°F11.2°C 90% Calm Calm -- 30.09 in1019.0 mb 0.00 in0.0 mm 0.00 in0.0 mm 0.56 in14.2 mm
05:40 PM 55.0°F12.8°C 52.2°F11.2°C 90% Calm Calm -- 30.09 in1019.0 mb 0.00 in0.0 mm 0.00 in0.0 mm 0.56 in14.2 mm
05:41 PM 55.0°F12.8°C 52.2°F11.2°C 90% Calm Calm -- 30.09 in1019.0 mb 0.00 in0.0 mm 0.00 in0.0 mm 0.56 in14.2 mm
05:42 PM 55.0°F12.8°C 52.2°F11.2°C 90% Calm Calm -- 30.09 in1019.0 mb 0.00 in0.0 mm 0.00 in0.0 mm 0.56 in14.2 mm
05:43 PM 55.0°F12.8°C 52.2°F11.2°C 90% Calm Calm -- 30.09 in1019.0 mb 0.00 in0.0 mm 0.00 in0.0 mm 0.56 in14.2 mm
05:44 PM 54.9°F12.7°C 52.0°F11.1°C 90% Calm Calm -- 30.09 in1019.0 mb 0.00 in0.0 mm 0.00 in0.0 mm 0.56 in14.2 mm
05:45 PM 54.9°F12.7°C 52.0°F11.1°C 90% Calm Calm -- 30.09 in1019.0 mb 0.00 in0.0 mm 0.00 in0.0 mm 0.56 in14.2 mm
05:46 PM 54.9°F12.7°C 52.0°F11.1°C 90% Calm Calm -- 30.09 in1019.0 mb 0.00 in0.0 mm 0.00 in0.0 mm 0.56 in14.2 mm
05:47 PM 54.7°F12.6°C 51.8°F11.0°C 90% Calm Calm -- 30.09 in1019.0 mb 0.00 in0.0 mm 0.00 in0.0 mm 0.56 in14.2 mm
05:48 PM 54.7°F12.6°C 51.8°F11.0°C 90% Calm Calm -- 30.09 in1019.0 mb 0.00 in0.0 mm 0.00 in0.0 mm 0.56 in14.2 mm
05:49 PM 54.7°F12.6°C 51.8°F11.0°C 90% Calm Calm -- 30.09 in1019.0 mb 0.00 in0.0 mm 0.00 in0.0 mm 0.56 in14.2 mm
05:50 PM 54.7°F12.6°C 51.8°F11.0°C 90% Calm Calm -- 30.09 in1019.0 mb 0.00 in0.0 mm 0.00 in0.0 mm 0.56 in14.2 mm
05:51 PM 54.5°F12.5°C 51.6°F10.9°C 90% Calm Calm -- 30.09 in1019.0 mb 0.00 in0.0 mm 0.00 in0.0 mm 0.56 in14.2 mm
05:52 PM 54.5°F12.5°C 51.6°F10.9°C 90% Calm Calm -- 30.09 in1019.0 mb 0.00 in0.0 mm 0.00 in0.0 mm 0.56 in14.2 mm
05:53 PM 54.5°F12.5°C 51.6°F10.9°C 90% Calm Calm -- 30.09 in1019.0 mb 0.00 in0.0 mm 0.00 in0.0 mm 0.56 in14.2 mm
05:54 PM 54.5°F12.5°C 51.6°F10.9°C 90% Calm Calm -- 30.09 in1019.0 mb 0.00 in0.0 mm 0.00 in0.0 mm 0.56 in14.2 mm
05:55 PM 54.5°F12.5°C 51.6°F10.9°C 90% 0.3 mph W0.5 kmh W 3.2 mph5.1 kmh 30.09 in1019.0 mb 0.00 in0.0 mm 0.00 in0.0 mm 0.56 in14.2 mm
05:56 PM 54.3°F12.4°C 51.4°F10.8°C 90% 0.7 mph W1.1 kmh W 5.0 mph8.0 kmh 30.09 in1019.0 mb 0.00 in0.0 mm 0.00 in0.0 mm 0.56 in14.2 mm
05:57 PM 54.3°F12.4°C 51.4°F10.8°C 90% 0.7 mph W1.1 kmh W 5.0 mph8.0 kmh 30.09 in1019.0 mb 0.00 in0.0 mm 0.00 in0.0 mm 0.56 in14.2 mm
05:58 PM 54.3°F12.4°C 51.4°F10.8°C 90% 0.7 mph W1.1 kmh W 5.0 mph8.0 kmh 30.09 in1019.0 mb 0.00 in0.0 mm 0.00 in0.0 mm 0.56 in14.2 mm
05:59 PM 54.3°F12.4°C 51.4°F10.8°C 90% 0.7 mph W1.1 kmh W 5.0 mph8.0 kmh 30.09 in1019.0 mb 0.00 in0.0 mm 0.00 in0.0 mm 0.56 in14.2 mm
06:00 PM 54.3°F12.4°C 51.4°F10.8°C 90% 0.7 mph W1.1 kmh W 5.0 mph8.0 kmh 30.09 in1019.0 mb 0.00 in0.0 mm 0.00 in0.0 mm 0.56 in14.2 mm
06:01 PM 54.3°F12.4°C 51.4°F10.8°C 90% 0.7 mph W1.1 kmh W 5.0 mph8.0 kmh 30.09 in1019.0 mb 0.00 in0.0 mm 0.00 in0.0 mm 0.56 in14.2 mm
06:02 PM 54.1°F12.3°C 51.3°F10.7°C 90% 0.7 mph W1.1 kmh W 5.0 mph8.0 kmh 30.09 in1019.0 mb 0.00 in0.0 mm 0.00 in0.0 mm 0.56 in14.2 mm
06:03 PM 54.1°F12.3°C 51.3°F10.7°C 90% 0.6 mph W1.0 kmh W 5.0 mph8.0 kmh 30.09 in1019.0 mb 0.00 in0.0 mm 0.00 in0.0 mm 0.56 in14.2 mm
06:04 PM 54.1°F12.3°C 51.3°F10.7°C 90% 0.7 mph W1.1 kmh W 5.0 mph8.0 kmh 30.09 in1019.0 mb 0.00 in0.0 mm 0.00 in0.0 mm 0.56 in14.2 mm
06:05 PM 54.1°F12.3°C 51.3°F10.7°C 90% 0.4 mph W0.6 kmh W 5.0 mph8.0 kmh 30.09 in1019.0 mb 0.00 in0.0 mm 0.00 in0.0 mm 0.56 in14.2 mm
06:06 PM 54.1°F12.3°C 51.3°F10.7°C 90% 0.4 mph W0.6 kmh W 5.0 mph8.0 kmh 30.09 in1019.0 mb 0.00 in0.0 mm 0.00 in0.0 mm 0.56 in14.2 mm
06:07 PM 54.1°F12.3°C 51.3°F10.7°C 90% 0.2 mph S0.3 kmh S 2.5 mph4.0 kmh 30.09 in1019.0 mb 0.00 in0.0 mm 0.00 in0.0 mm 0.56 in14.2 mm
06:08 PM 54.1°F12.3°C 51.3°F10.7°C 90% 0.2 mph S0.3 kmh S 2.5 mph4.0 kmh 30.09 in1019.0 mb 0.00 in0.0 mm 0.00 in0.0 mm 0.56 in14.2 mm
06:09 PM 54.1°F12.3°C 51.6°F10.9°C 91% 0.2 mph S0.3 kmh S 2.5 mph4.0 kmh 30.09 in1019.0 mb 0.00 in0.0 mm 0.00 in0.0 mm 0.56 in14.2 mm
06:10 PM 54.1°F12.3°C 51.6°F10.9°C 91% 0.2 mph S0.3 kmh S 2.5 mph4.0 kmh 30.09 in1019.0 mb 0.00 in0.0 mm 0.00 in0.0 mm 0.56 in14.2 mm
06:11 PM 54.1°F12.3°C 51.6°F10.9°C 91% 0.4 mph S0.6 kmh S 2.5 mph4.0 kmh 30.09 in1019.0 mb 0.00 in0.0 mm 0.00 in0.0 mm 0.56 in14.2 mm
06:12 PM 54.1°F12.3°C 51.6°F10.9°C 91% 0.4 mph S0.6 kmh S 2.5 mph4.0 kmh 30.09 in1019.0 mb 0.00 in0.0 mm 0.00 in0.0 mm 0.56 in14.2 mm
06:13 PM 54.1°F12.3°C 51.6°F10.9°C 91% 0.4 mph S0.6 kmh S 2.5 mph4.0 kmh 30.09 in1019.0 mb 0.00 in0.0 mm 0.00 in0.0 mm 0.56 in14.2 mm
06:14 PM 54.1°F12.3°C 51.6°F10.9°C 91% 0.6 mph S1.0 kmh S 3.2 mph5.1 kmh 30.09 in1019.0 mb 0.00 in0.0 mm 0.00 in0.0 mm 0.56 in14.2 mm
06:15 PM 54.1°F12.3°C 51.6°F10.9°C 91% 0.6 mph S1.0 kmh S 3.2 mph5.1 kmh 30.09 in1019.0 mb 0.00 in0.0 mm 0.00 in0.0 mm 0.56 in14.2 mm
06:20 PM 54.0°F12.2°C 51.4°F10.8°C 91% 0.1 mph SW0.2 kmh SW 3.2 mph5.1 kmh 30.09 in1019.0 mb 0.00 in0.0 mm 0.00 in0.0 mm 0.56 in14.2 mm
06:30 PM 54.0°F12.2°C 51.7°F10.9°C 92% Calm Calm -- 30.12 in1020.0 mb 0.00 in0.0 mm 0.00 in0.0 mm 0.56 in14.2 mm
06:40 PM 53.8°F12.1°C 51.5°F10.8°C 92% Calm Calm -- 30.12 in1020.0 mb 0.00 in0.0 mm 0.00 in0.0 mm 0.56 in14.2 mm
06:50 PM 53.8°F12.1°C 51.5°F10.8°C 92% Calm Calm 1.4 mph2.3 kmh 30.12 in1020.0 mb 0.00 in0.0 mm 0.00 in0.0 mm 0.56 in14.2 mm
07:00 PM 53.6°F12.0°C 51.3°F10.7°C 92% Calm Calm -- 30.09 in1019.0 mb 0.00 in0.0 mm 0.00 in0.0 mm 0.56 in14.2 mm
07:10 PM 53.6°F12.0°C 51.6°F10.9°C 93% Calm Calm -- 30.09 in1019.0 mb 0.00 in0.0 mm 0.00 in0.0 mm 0.56 in14.2 mm
07:20 PM 53.6°F12.0°C 51.6°F10.9°C 93% Calm Calm 1.8 mph2.9 kmh 30.12 in1020.0 mb 0.00 in0.0 mm 0.00 in0.0 mm 0.56 in14.2 mm
07:30 PM 53.6°F12.0°C 51.6°F10.9°C 93% Calm Calm -- 30.15 in1021.0 mb 0.00 in0.0 mm 0.00 in0.0 mm 0.56 in14.2 mm
07:40 PM 53.8°F12.1°C 51.8°F11.0°C 93% Calm Calm -- 30.15 in1021.0 mb 0.00 in0.0 mm 0.00 in0.0 mm 0.56 in14.2 mm
07:50 PM 53.6°F12.0°C 51.6°F10.9°C 93% Calm Calm -- 30.15 in1021.0 mb 0.00 in0.0 mm 0.00 in0.0 mm 0.56 in14.2 mm
08:00 PM 53.6°F12.0°C 51.6°F10.9°C 93% Calm Calm -- 30.15 in1021.0 mb 0.00 in0.0 mm 0.00 in0.0 mm 0.56 in14.2 mm
08:10 PM 53.6°F12.0°C 51.6°F10.9°C 93% Calm Calm 1.4 mph2.3 kmh 30.15 in1021.0 mb 0.00 in0.0 mm 0.00 in0.0 mm 0.56 in14.2 mm
08:20 PM 53.6°F12.0°C 51.9°F11.1°C 94% Calm Calm 1.4 mph2.3 kmh 30.15 in1021.0 mb 0.00 in0.0 mm 0.00 in0.0 mm 0.56 in14.2 mm
08:30 PM 53.6°F12.0°C 51.9°F11.1°C 94% Calm Calm -- 30.18 in1022.0 mb 0.00 in0.0 mm 0.00 in0.0 mm 0.56 in14.2 mm
08:40 PM 53.6°F12.0°C 51.9°F11.1°C 94% Calm Calm -- 30.18 in1022.0 mb 0.00 in0.0 mm 0.00 in0.0 mm 0.56 in14.2 mm
08:50 PM 53.4°F11.9°C 51.7°F10.9°C 94% Calm Calm -- 30.18 in1022.0 mb 0.00 in0.0 mm 0.00 in0.0 mm 0.56 in14.2 mm
09:00 PM 53.6°F12.0°C 51.9°F11.1°C 94% Calm Calm -- 30.18 in1022.0 mb 0.00 in0.0 mm 0.00 in0.0 mm 0.56 in14.2 mm
09:10 PM 53.6°F12.0°C 51.9°F11.1°C 94% Calm Calm -- 30.18 in1022.0 mb 0.00 in0.0 mm 0.00 in0.0 mm 0.56 in14.2 mm
09:20 PM 53.8°F12.1°C 52.1°F11.2°C 94% Calm Calm -- 30.18 in1022.0 mb 0.00 in0.0 mm 0.00 in0.0 mm 0.56 in14.2 mm
09:30 PM 53.6°F12.0°C 51.9°F11.1°C 94% Calm Calm -- 30.18 in1022.0 mb 0.00 in0.0 mm 0.00 in0.0 mm 0.56 in14.2 mm
09:40 PM 53.6°F12.0°C 51.9°F11.1°C 94% Calm Calm -- 30.18 in1022.0 mb 0.00 in0.0 mm 0.00 in0.0 mm 0.56 in14.2 mm
09:50 PM 53.6°F12.0°C 51.9°F11.1°C 94% Calm Calm 2.1 mph3.4 kmh 30.18 in1022.0 mb 0.00 in0.0 mm 0.00 in0.0 mm 0.56 in14.2 mm
10:00 PM 53.6°F12.0°C 51.9°F11.1°C 94% 0.1 mph E0.2 kmh E 2.5 mph4.0 kmh 30.18 in1022.0 mb 0.00 in0.0 mm 0.00 in0.0 mm 0.56 in14.2 mm
10:10 PM 53.6°F12.0°C 51.9°F11.1°C 94% 0.1 mph E0.2 kmh E 2.1 mph3.4 kmh 30.18 in1022.0 mb 0.00 in0.0 mm 0.00 in0.0 mm 0.56 in14.2 mm
10:20 PM 53.6°F12.0°C 51.9°F11.1°C 94% Calm Calm -- 30.15 in1021.0 mb 0.00 in0.0 mm 0.00 in0.0 mm 0.56 in14.2 mm
10:30 PM 53.6°F12.0°C 51.9°F11.1°C 94% Calm Calm -- 30.18 in1022.0 mb 0.00 in0.0 mm 0.00 in0.0 mm 0.56 in14.2 mm
10:40 PM 53.4°F11.9°C 51.7°F10.9°C 94% 0.2 mph NE0.3 kmh NE 3.9 mph6.3 kmh 30.18 in1022.0 mb 0.00 in0.0 mm 0.00 in0.0 mm 0.56 in14.2 mm
10:50 PM 52.9°F11.6°C 51.2°F10.7°C 94% 0.2 mph NE0.3 kmh NE 2.1 mph3.4 kmh 30.18 in1022.0 mb 0.00 in0.0 mm 0.00 in0.0 mm 0.56 in14.2 mm
11:00 PM 52.5°F11.4°C 50.6°F10.3°C 93% 0.6 mph NE1.0 kmh NE 5.7 mph9.2 kmh 30.18 in1022.0 mb 0.00 in0.0 mm 0.00 in0.0 mm 0.54 in13.7 mm
11:10 PM 52.2°F11.2°C 49.9°F9.9°C 92% 0.8 mph E1.3 kmh E 6.1 mph9.8 kmh 30.18 in1022.0 mb 0.00 in0.0 mm 0.00 in0.0 mm 0.54 in13.7 mm
11:20 PM 51.6°F10.9°C 49.4°F9.7°C 92% 0.5 mph E0.8 kmh E 6.1 mph9.8 kmh 30.18 in1022.0 mb 0.00 in0.0 mm 0.00 in0.0 mm 0.54 in13.7 mm
11:30 PM 51.3°F10.7°C 48.7°F9.3°C 91% Calm Calm -- 30.21 in1023.0 mb 0.00 in0.0 mm 0.00 in0.0 mm 0.54 in13.7 mm
11:40 PM 50.9°F10.5°C 48.4°F9.1°C 91% 0.1 mph ENE0.2 kmh ENE 3.2 mph5.1 kmh 30.21 in1023.0 mb 0.00 in0.0 mm 0.00 in0.0 mm 0.54 in13.7 mm
11:50 PM 50.5°F10.3°C 48.0°F8.9°C 91% 0.3 mph ENE0.5 kmh ENE 3.6 mph5.8 kmh 30.21 in1023.0 mb 0.00 in0.0 mm 0.00 in0.0 mm 0.54 in13.7 mm